createdAt,value
2022-10-19T00:00:31.745Z,96.25
2022-10-19T00:01:31.706Z,96.55
2022-10-19T00:02:31.755Z,96.75
2022-10-19T00:03:31.722Z,97.06
2022-10-19T00:04:31.803Z,97.26
2022-10-19T00:05:32.019Z,97.06
2022-10-19T00:06:31.843Z,97.06
2022-10-19T00:07:31.982Z,97.36
2022-10-19T00:08:31.664Z,97.31
2022-10-19T00:09:31.654Z,97.26
2022-10-19T00:10:31.628Z,97.00
2022-10-19T00:11:31.716Z,96.60
2022-10-19T00:12:31.625Z,96.39
2022-10-19T00:13:31.625Z,96.60
2022-10-19T00:14:31.594Z,96.80
2022-10-19T00:15:31.634Z,97.51
2022-10-19T00:16:31.566Z,97.71
2022-10-19T00:17:31.853Z,97.61
2022-10-19T00:18:31.585Z,97.41
2022-10-19T00:19:31.620Z,97.26
2022-10-19T00:20:31.565Z,97.31
2022-10-19T00:21:31.813Z,97.00
2022-10-19T00:22:31.919Z,96.70
2022-10-19T00:23:31.526Z,96.45
2022-10-19T00:24:31.567Z,96.35
2022-10-19T00:25:31.478Z,96.15
2022-10-19T00:26:31.510Z,96.55
2022-10-19T00:27:31.483Z,96.45
2022-10-19T00:28:31.486Z,96.35
2022-10-19T00:29:31.449Z,96.55
2022-10-19T00:30:31.472Z,96.96
2022-10-19T00:31:31.442Z,96.75
2022-10-19T00:32:31.683Z,96.04
2022-10-19T00:33:31.662Z,95.84
2022-10-19T00:34:31.390Z,95.84
2022-10-19T00:35:31.364Z,96.04
2022-10-19T00:36:31.396Z,95.94
2022-10-19T00:37:31.349Z,96.15
2022-10-19T00:38:31.374Z,96.45
2022-10-19T00:39:31.365Z,96.09
2022-10-19T00:40:31.322Z,96.30
2022-10-19T00:41:31.325Z,96.80
2022-10-19T00:42:31.518Z,97.00
2022-10-19T00:43:31.285Z,96.90
2022-10-19T00:44:31.342Z,97.11
2022-10-19T00:45:31.277Z,96.80
2022-10-19T00:46:31.274Z,96.50
2022-10-19T00:47:31.274Z,96.30
2022-10-19T00:48:31.270Z,96.39
2022-10-19T00:49:31.280Z,96.80
2022-10-19T00:50:31.232Z,96.80
2022-10-19T00:51:31.192Z,96.50
2022-10-19T00:52:31.560Z,96.50
2022-10-19T00:53:31.211Z,96.30
2022-10-19T00:54:31.214Z,96.09
2022-10-19T00:55:31.192Z,96.70
2022-10-19T00:56:31.226Z,97.41
2022-10-19T00:57:31.187Z,95.89
2022-10-19T00:58:31.162Z,95.99
2022-10-19T00:59:31.152Z,96.09
2022-10-19T01:00:31.115Z,95.68
2022-10-19T01:01:31.471Z,95.68
2022-10-19T01:02:31.492Z,95.79
2022-10-19T01:03:31.072Z,96.19
2022-10-19T01:04:31.095Z,95.68
2022-10-19T01:05:31.099Z,95.79
2022-10-19T01:06:31.036Z,96.50
2022-10-19T01:07:31.291Z,96.19
2022-10-19T01:08:31.811Z,95.38
2022-10-19T01:09:31.001Z,95.53
2022-10-19T01:10:31.025Z,95.94
2022-10-19T01:11:30.992Z,95.63
2022-10-19T01:12:31.040Z,95.12
2022-10-19T01:13:31.046Z,95.73
2022-10-19T01:14:30.949Z,96.03
2022-10-19T01:15:30.956Z,96.03
2022-10-19T01:16:30.944Z,96.34
2022-10-19T01:17:31.206Z,97.45
2022-10-19T01:18:30.931Z,97.45
2022-10-19T01:19:30.959Z,97.25
2022-10-19T01:20:30.894Z,95.94
2022-10-19T01:21:30.899Z,95.53
2022-10-19T01:22:30.928Z,95.42
2022-10-19T01:23:30.910Z,95.94
2022-10-19T01:24:30.912Z,96.75
2022-10-19T01:25:30.879Z,96.84
2022-10-19T01:26:30.826Z,96.23
2022-10-19T01:27:31.060Z,95.73
2022-10-19T01:28:30.870Z,95.73
2022-10-19T01:29:30.924Z,95.83
2022-10-19T01:30:30.813Z,96.14
2022-10-19T01:31:30.820Z,95.83
2022-10-19T01:32:30.764Z,95.42
2022-10-19T01:33:30.788Z,94.71
2022-10-19T01:34:30.762Z,94.71
2022-10-19T01:35:30.751Z,95.63
2022-10-19T01:36:30.750Z,95.83
2022-10-19T01:37:30.878Z,97.25
2022-10-19T01:38:30.736Z,96.54
2022-10-19T01:39:30.700Z,96.23
2022-10-19T01:40:30.703Z,96.75
2022-10-19T01:41:30.709Z,96.44
2022-10-19T01:42:30.670Z,95.22
2022-10-19T01:43:30.654Z,96.44
2022-10-19T01:44:30.691Z,96.84
2022-10-19T01:45:30.674Z,95.73
2022-10-19T01:46:30.674Z,96.23
2022-10-19T01:47:30.781Z,95.87
2022-10-19T01:48:30.603Z,95.98
2022-10-19T01:49:30.597Z,95.87
2022-10-19T01:50:30.577Z,95.87
2022-10-19T01:51:30.605Z,96.48
2022-10-19T01:52:30.730Z,96.59
2022-10-19T01:53:30.603Z,96.99
2022-10-19T01:54:30.539Z,96.99
2022-10-19T01:55:30.567Z,96.28
2022-10-19T01:56:30.537Z,96.75
2022-10-19T01:57:30.529Z,96.69
2022-10-19T01:58:30.566Z,96.28
2022-10-19T01:59:30.515Z,95.87
2022-10-19T02:00:30.486Z,95.98
2022-10-19T02:01:30.525Z,96.79
2022-10-19T02:02:30.644Z,97.71
2022-10-19T02:03:30.500Z,97.50
2022-10-19T02:04:30.479Z,97.20
2022-10-19T02:05:30.431Z,97.09
2022-10-19T02:06:30.474Z,97.40
2022-10-19T02:07:30.452Z,98.01
2022-10-19T02:08:30.411Z,98.36
2022-10-19T02:09:30.407Z,98.21
2022-10-19T02:10:30.379Z,99.43
2022-10-19T02:11:30.403Z,98.21
2022-10-19T02:12:30.586Z,97.80
2022-10-19T02:13:30.355Z,97.60
2022-10-19T02:14:30.341Z,98.11
2022-10-19T02:15:30.328Z,98.21
2022-10-19T02:16:30.316Z,97.91
2022-10-19T02:17:30.320Z,97.96
2022-10-19T02:18:30.370Z,98.01
2022-10-19T02:19:30.580Z,98.21
2022-10-19T02:20:30.337Z,98.21
2022-10-19T02:21:30.265Z,98.21
2022-10-19T02:22:30.493Z,98.11
2022-10-19T02:23:30.259Z,98.21
2022-10-19T02:24:30.245Z,98.01
2022-10-19T02:25:30.225Z,97.91
2022-10-19T02:26:30.263Z,97.71
2022-10-19T02:27:30.200Z,97.50
2022-10-19T02:28:30.199Z,97.50
2022-10-19T02:29:30.205Z,98.11
2022-10-19T02:30:30.185Z,98.11
2022-10-19T02:31:30.159Z,98.11
2022-10-19T02:32:30.169Z,98.72
2022-10-19T02:33:30.181Z,98.72
2022-10-19T02:34:30.155Z,98.52
2022-10-19T02:35:30.134Z,98.41
2022-10-19T02:36:30.122Z,98.05
2022-10-19T02:37:30.198Z,98.66
2022-10-19T02:38:30.128Z,99.17
2022-10-19T02:39:30.137Z,99.07
2022-10-19T02:40:30.073Z,99.48
2022-10-19T02:41:30.068Z,99.48
2022-10-19T02:42:30.089Z,99.07
2022-10-19T02:43:30.052Z,99.17
2022-10-19T02:44:30.016Z,99.27
2022-10-19T02:45:30.061Z,99.17
2022-10-19T02:46:30.117Z,98.86
2022-10-19T02:47:30.029Z,98.36
2022-10-19T02:48:30.045Z,98.36
2022-10-19T02:49:29.990Z,98.92
2022-10-19T02:50:29.973Z,98.82
2022-10-19T02:51:29.951Z,98.05
2022-10-19T02:52:29.985Z,98.11
2022-10-19T02:53:29.998Z,98.16
2022-10-19T02:54:29.950Z,98.46
2022-10-19T02:55:30.019Z,99.99
2022-10-19T02:56:29.894Z,98.05
2022-10-19T02:57:29.928Z,98.26
2022-10-19T02:58:29.926Z,98.66
2022-10-19T02:59:29.884Z,99.07
2022-10-19T03:00:29.877Z,98.56
2022-10-19T03:01:29.916Z,98.66
2022-10-19T03:02:29.826Z,98.56
2022-10-19T03:03:30.368Z,97.96
2022-10-19T03:04:29.842Z,98.26
2022-10-19T03:05:29.843Z,98.86
2022-10-19T03:06:29.792Z,99.07
2022-10-19T03:07:29.836Z,98.77
2022-10-19T03:08:29.741Z,99.11
2022-10-19T03:09:29.769Z,98.97
2022-10-19T03:10:29.768Z,98.05
2022-10-19T03:11:29.778Z,97.75
2022-10-19T03:12:29.786Z,97.96
2022-10-19T03:13:29.782Z,98.56
2022-10-19T03:14:29.750Z,98.46
2022-10-19T03:15:29.738Z,98.16
2022-10-19T03:16:29.712Z,97.24
2022-10-19T03:17:29.703Z,97.34
2022-10-19T03:18:29.672Z,96.33
2022-10-19T03:19:29.657Z,95.92
2022-10-19T03:20:29.652Z,95.66
2022-10-19T03:21:29.703Z,96.27
2022-10-19T03:22:29.641Z,96.78
2022-10-19T03:23:29.647Z,96.58
2022-10-19T03:24:29.654Z,96.98
2022-10-19T03:25:29.601Z,97.29
2022-10-19T03:26:29.638Z,97.08
2022-10-19T03:27:29.574Z,96.98
2022-10-19T03:28:29.611Z,97.19
2022-10-19T03:29:29.570Z,96.68
2022-10-19T03:30:29.629Z,96.98
2022-10-19T03:31:29.535Z,96.94
2022-10-19T03:32:29.534Z,97.24
2022-10-19T03:33:29.569Z,97.04
2022-10-19T03:34:29.541Z,96.73
2022-10-19T03:35:29.802Z,97.29
2022-10-19T03:36:29.493Z,98.00
2022-10-19T03:37:29.547Z,97.85
2022-10-19T03:38:29.452Z,98.16
2022-10-19T03:39:29.454Z,97.55
2022-10-19T03:40:29.459Z,97.34
2022-10-19T03:41:29.466Z,97.44
2022-10-19T03:42:29.424Z,96.73
2022-10-19T03:43:29.413Z,96.73
2022-10-19T03:44:29.431Z,95.92
2022-10-19T03:45:29.395Z,95.51
2022-10-19T03:46:29.384Z,96.43
2022-10-19T03:47:29.416Z,95.82
2022-10-19T03:48:31.181Z,95.72
2022-10-19T03:49:29.421Z,96.02
2022-10-19T03:50:29.356Z,96.02
2022-10-19T03:51:29.413Z,95.10
2022-10-19T03:52:29.346Z,95.51
2022-10-19T03:53:30.526Z,96.33
2022-10-19T03:54:29.564Z,96.73
2022-10-19T03:55:29.281Z,95.41
2022-10-19T03:56:29.302Z,94.40
2022-10-19T03:57:29.307Z,94.70
2022-10-19T03:58:29.263Z,95.25
2022-10-19T03:59:29.280Z,96.27
2022-10-19T04:00:29.244Z,96.37
2022-10-19T04:01:29.299Z,96.58
2022-10-19T04:02:29.239Z,97.39
2022-10-19T04:03:29.262Z,95.72
2022-10-19T04:04:29.209Z,95.41
2022-10-19T04:05:29.442Z,95.92
2022-10-19T04:06:29.209Z,96.02
2022-10-19T04:07:29.165Z,96.94
2022-10-19T04:08:29.152Z,96.12
2022-10-19T04:09:29.172Z,96.02
2022-10-19T04:10:29.140Z,95.72
2022-10-19T04:11:29.131Z,95.62
2022-10-19T04:12:29.392Z,95.82
2022-10-19T04:13:29.098Z,96.07
2022-10-19T04:14:33.096Z,96.37
2022-10-19T04:15:29.114Z,96.78
2022-10-19T04:16:29.060Z,97.08
2022-10-19T04:17:29.103Z,96.98
2022-10-19T04:18:29.050Z,97.29
2022-10-19T04:19:29.349Z,97.19
2022-10-19T04:20:29.047Z,97.49
2022-10-19T04:21:29.026Z,97.08
2022-10-19T04:22:29.011Z,97.60
2022-10-19T04:23:28.956Z,97.29
2022-10-19T04:24:29.003Z,96.58
2022-10-19T04:25:29.044Z,97.08
2022-10-19T04:26:28.986Z,97.39
2022-10-19T04:27:28.971Z,97.29
2022-10-19T04:28:29.227Z,97.60
2022-10-19T04:29:30.184Z,97.53
2022-10-19T04:30:28.916Z,97.94
2022-10-19T04:31:28.916Z,97.94
2022-10-19T04:32:28.912Z,98.35
2022-10-19T04:33:28.911Z,98.45
2022-10-19T04:34:28.939Z,98.45
2022-10-19T04:35:28.923Z,98.71
2022-10-19T04:36:28.823Z,98.10
2022-10-19T04:37:28.873Z,97.49
2022-10-19T04:38:28.840Z,97.94
2022-10-19T04:39:28.860Z,98.30
2022-10-19T04:40:28.857Z,98.20
2022-10-19T04:41:28.751Z,97.29
2022-10-19T04:42:28.826Z,96.72
2022-10-19T04:43:28.751Z,97.33
2022-10-19T04:44:28.775Z,97.13
2022-10-19T04:45:28.791Z,97.74
2022-10-19T04:46:28.767Z,98.45
2022-10-19T04:47:28.772Z,98.25
2022-10-19T04:48:28.789Z,98.45
2022-10-19T04:49:28.802Z,98.35
2022-10-19T04:50:28.733Z,98.86
2022-10-19T04:51:28.734Z,98.10
2022-10-19T04:52:28.715Z,95.66
2022-10-19T04:53:28.713Z,95.05
2022-10-19T04:54:28.681Z,95.97
2022-10-19T04:55:28.723Z,97.29
2022-10-19T04:56:28.748Z,95.15
2022-10-19T04:57:28.679Z,94.95
2022-10-19T04:58:28.654Z,94.34
2022-10-19T04:59:28.686Z,93.93
2022-10-19T05:00:28.652Z,94.64
2022-10-19T05:01:28.680Z,95.05
2022-10-19T05:02:28.618Z,95.97
2022-10-19T05:03:28.619Z,96.07
2022-10-19T05:04:28.598Z,95.46
2022-10-19T05:05:28.562Z,96.47
2022-10-19T05:06:28.575Z,96.37
2022-10-19T05:07:28.560Z,96.17
2022-10-19T05:08:28.547Z,95.86
2022-10-19T05:09:28.524Z,94.34
2022-10-19T05:10:28.484Z,95.92
2022-10-19T05:11:28.507Z,93.38
2022-10-19T05:12:28.555Z,92.06
2022-10-19T05:13:28.490Z,90.33
2022-10-19T05:15:28.490Z,90.23
2022-10-19T05:16:28.394Z,90.13
2022-10-19T05:17:28.497Z,90.07
2022-10-19T05:18:28.474Z,90.78
2022-10-19T05:19:28.428Z,92.61
2022-10-19T05:20:28.406Z,92.47
2022-10-19T05:21:28.427Z,91.96
2022-10-19T05:22:28.441Z,90.64
2022-10-19T05:23:28.431Z,90.03
2022-10-19T05:24:28.448Z,90.13
2022-10-19T05:25:28.313Z,90.94
2022-10-19T05:26:28.346Z,92.87
2022-10-19T05:27:28.302Z,92.67
2022-10-19T05:28:28.465Z,91.25
2022-10-19T05:29:28.335Z,90.84
2022-10-19T05:30:28.351Z,90.13
2022-10-19T05:31:28.366Z,90.44
2022-10-19T05:32:28.352Z,89.62
2022-10-19T05:33:28.260Z,89.46
2022-10-19T05:34:28.261Z,89.36
2022-10-19T05:35:28.244Z,89.15
2022-10-19T05:36:28.227Z,89.46
2022-10-19T05:37:28.235Z,90.58
2022-10-19T05:38:28.194Z,91.60
2022-10-19T05:39:28.200Z,90.88
2022-10-19T05:40:28.198Z,91.80
2022-10-19T05:41:28.237Z,91.09
2022-10-19T05:42:28.159Z,92.10
2022-10-19T05:43:28.148Z,91.43
2022-10-19T05:44:28.167Z,92.04
2022-10-19T05:45:28.123Z,91.13
2022-10-19T05:46:28.162Z,91.74
2022-10-19T05:47:30.292Z,93.47
2022-10-19T05:48:28.099Z,93.06
2022-10-19T05:49:28.094Z,92.65
2022-10-19T05:50:28.064Z,91.74
2022-10-19T05:51:28.057Z,92.76
2022-10-19T05:52:28.250Z,93.37
2022-10-19T05:53:28.211Z,92.45
2022-10-19T05:54:28.713Z,92.25
2022-10-19T05:55:28.384Z,91.53
2022-10-19T05:56:28.345Z,92.86
2022-10-19T05:57:28.045Z,92.14
2022-10-19T05:58:28.029Z,92.14
2022-10-19T05:59:27.996Z,91.13
2022-10-19T06:00:28.089Z,90.72
2022-10-19T06:01:28.019Z,92.96
2022-10-19T06:02:27.935Z,92.96
2022-10-19T06:03:27.949Z,93.16
2022-10-19T06:04:28.196Z,92.86
2022-10-19T06:05:27.919Z,92.04
2022-10-19T06:06:27.945Z,91.43
2022-10-19T06:07:27.900Z,93.06
2022-10-19T06:08:27.871Z,90.62
2022-10-19T06:09:27.873Z,87.98
2022-10-19T06:10:27.936Z,87.37
2022-10-19T06:11:27.910Z,88.69
2022-10-19T06:12:27.828Z,89.81
2022-10-19T06:13:27.848Z,88.75
2022-10-19T06:14:27.810Z,88.18
2022-10-19T06:15:27.814Z,89.15
2022-10-19T06:16:27.822Z,88.39
2022-10-19T06:17:27.798Z,89.05
2022-10-19T06:18:27.949Z,88.44
2022-10-19T06:19:27.871Z,88.24
2022-10-19T06:20:27.821Z,86.92
2022-10-19T06:21:27.854Z,86.82
2022-10-19T06:22:27.918Z,89.09
2022-10-19T06:23:27.792Z,88.44
2022-10-19T06:24:27.772Z,87.53
2022-10-19T06:25:27.690Z,87.53
2022-10-19T06:26:27.753Z,86.82
2022-10-19T06:27:27.693Z,86.51
2022-10-19T06:28:27.679Z,86.45
2022-10-19T06:29:27.718Z,86.65
2022-10-19T06:30:27.756Z,86.76
2022-10-19T06:31:27.641Z,86.86
2022-10-19T06:32:27.659Z,87.06
2022-10-19T06:33:27.683Z,87.26
2022-10-19T06:34:27.676Z,87.16
2022-10-19T06:35:27.598Z,87.47
2022-10-19T06:36:27.806Z,87.77
2022-10-19T06:37:27.747Z,87.87
2022-10-19T06:38:27.715Z,87.98
2022-10-19T06:39:27.634Z,89.50
2022-10-19T06:40:27.709Z,88.18
2022-10-19T06:41:27.618Z,88.08
2022-10-19T06:42:27.596Z,87.37
2022-10-19T06:43:27.621Z,87.47
2022-10-19T06:44:27.519Z,87.57
2022-10-19T06:45:29.405Z,88.18
2022-10-19T06:46:27.513Z,88.39
2022-10-19T06:47:27.595Z,89.61
2022-10-19T06:48:27.593Z,90.72
2022-10-19T06:49:27.600Z,89.15
2022-10-19T06:50:27.585Z,87.63
2022-10-19T06:51:27.788Z,85.66
2022-10-19T06:52:30.543Z,84.70
2022-10-19T06:53:27.468Z,84.16
2022-10-19T06:54:27.412Z,83.85
2022-10-19T06:55:27.516Z,84.87
2022-10-19T06:56:27.395Z,83.75
2022-10-19T06:57:29.149Z,84.09
2022-10-19T06:58:27.461Z,84.64
2022-10-19T06:59:27.377Z,85.05
2022-10-19T07:00:27.716Z,85.66
2022-10-19T07:01:27.386Z,85.76
2022-10-19T07:02:27.349Z,86.10
2022-10-19T07:03:27.698Z,86.10
2022-10-19T07:04:27.303Z,86.31
2022-10-19T07:05:27.399Z,88.95
2022-10-19T07:06:27.320Z,88.13
2022-10-19T07:07:27.433Z,88.44
2022-10-19T07:08:27.256Z,89.36
2022-10-19T07:09:27.238Z,88.24
2022-10-19T07:10:27.232Z,87.43
2022-10-19T07:11:27.237Z,86.61
2022-10-19T07:12:27.232Z,86.41
2022-10-19T07:13:27.200Z,86.00
2022-10-19T07:14:37.986Z,86.31
2022-10-19T07:15:27.326Z,86.51
2022-10-19T07:16:28.196Z,86.21
2022-10-19T07:17:28.720Z,86.00
2022-10-19T07:18:27.564Z,86.41
2022-10-19T07:19:27.261Z,86.71
2022-10-19T07:20:28.130Z,86.41
2022-10-19T07:21:27.568Z,86.51
2022-10-19T07:22:28.328Z,86.61
2022-10-19T07:23:27.229Z,87.84
2022-10-19T07:24:27.084Z,86.92
2022-10-19T07:25:27.121Z,87.93
2022-10-19T07:26:27.379Z,87.53
2022-10-19T07:27:27.110Z,86.71
2022-10-19T07:28:27.086Z,86.21
2022-10-19T07:29:27.051Z,86.10
2022-10-19T07:30:27.035Z,86.31
2022-10-19T07:31:27.098Z,86.71
2022-10-19T07:32:28.082Z,88.13
2022-10-19T07:33:27.056Z,87.38
2022-10-19T07:34:28.974Z,86.98
2022-10-19T07:35:27.060Z,86.27
2022-10-19T07:36:27.002Z,86.27
2022-10-19T07:37:27.148Z,86.37
2022-10-19T07:38:26.950Z,86.37
2022-10-19T07:39:26.950Z,86.57
2022-10-19T07:40:27.323Z,85.86
2022-10-19T07:41:26.894Z,86.47
2022-10-19T07:42:27.658Z,86.37
2022-10-19T07:43:26.874Z,85.76
2022-10-19T07:44:26.893Z,85.55
2022-10-19T07:45:27.003Z,85.21
2022-10-19T07:46:26.854Z,85.21
2022-10-19T07:47:26.954Z,85.11
2022-10-19T07:48:26.829Z,85.21
2022-10-19T07:49:27.758Z,85.41
2022-10-19T07:50:26.834Z,84.36
2022-10-19T07:51:26.898Z,84.26
2022-10-19T07:52:26.794Z,83.95
2022-10-19T07:53:26.828Z,83.65
2022-10-19T07:54:27.624Z,83.75
2022-10-19T07:55:26.774Z,83.54
2022-10-19T07:56:26.840Z,83.54
2022-10-19T07:57:26.752Z,82.29
2022-10-19T07:58:26.758Z,82.50
2022-10-19T07:59:26.800Z,82.39
2022-10-19T08:00:26.753Z,81.68
2022-10-19T08:01:26.711Z,81.99
2022-10-19T08:02:30.954Z,81.38
2022-10-19T08:05:27.097Z,80.46
2022-10-19T08:06:26.946Z,80.16
2022-10-19T08:07:26.743Z,80.12
2022-10-19T08:08:26.689Z,80.36
2022-10-19T08:10:26.210Z,79.82
2022-10-19T08:11:27.660Z,80.12
2022-10-19T08:12:26.600Z,80.22
2022-10-19T08:13:26.616Z,79.11
2022-10-19T08:14:26.597Z,79.04
2022-10-19T08:15:26.591Z,79.65
2022-10-19T08:16:26.580Z,79.96
2022-10-19T08:17:26.573Z,79.75
2022-10-19T08:18:26.585Z,79.55
2022-10-19T08:19:26.563Z,79.75
2022-10-19T08:20:26.534Z,79.55
2022-10-19T08:21:26.566Z,79.25
2022-10-19T08:22:26.558Z,79.75
2022-10-19T08:23:26.470Z,79.72
2022-10-19T08:24:26.515Z,80.12
2022-10-19T08:25:26.469Z,79.82
2022-10-19T08:26:26.458Z,78.66
2022-10-19T08:27:26.580Z,77.55
2022-10-19T08:28:26.477Z,77.55
2022-10-19T08:29:29.083Z,77.34
2022-10-19T08:30:26.413Z,77.25
2022-10-19T08:31:26.390Z,76.70
2022-10-19T08:32:26.372Z,76.29
2022-10-19T08:33:26.477Z,76.40
2022-10-19T08:34:26.362Z,76.09
2022-10-19T08:35:36.735Z,75.89
2022-10-19T08:36:26.629Z,75.18
2022-10-19T08:37:40.612Z,75.49
2022-10-19T08:38:26.448Z,74.88
2022-10-19T08:39:26.408Z,75.22
2022-10-19T08:40:26.682Z,75.42
2022-10-19T08:41:26.337Z,75.93
2022-10-19T08:42:26.271Z,75.93
2022-10-19T08:43:26.417Z,75.73
2022-10-19T08:44:26.390Z,75.86
2022-10-19T08:45:26.258Z,76.57
2022-10-19T08:46:26.244Z,76.87
2022-10-19T08:47:26.360Z,76.67
2022-10-19T08:48:26.271Z,76.06
2022-10-19T08:49:26.219Z,76.17
2022-10-19T08:50:26.482Z,76.47
2022-10-19T08:51:27.233Z,76.37
2022-10-19T08:52:28.583Z,76.27
2022-10-19T08:53:26.215Z,76.37
2022-10-19T08:54:26.224Z,76.31
2022-10-19T08:55:26.222Z,76.47
2022-10-19T08:56:49.341Z,76.17
2022-10-19T08:57:26.202Z,76.27
2022-10-19T08:58:26.248Z,76.27
2022-10-19T08:59:26.143Z,76.33
2022-10-19T09:00:26.148Z,75.42
2022-10-19T09:01:26.109Z,75.32
2022-10-19T09:02:26.062Z,75.01
2022-10-19T09:03:37.863Z,75.01
2022-10-19T09:04:26.127Z,74.81
2022-10-19T09:05:26.081Z,74.91
2022-10-19T09:06:26.081Z,74.91
2022-10-19T09:07:26.208Z,75.22
2022-10-19T09:08:26.068Z,75.52
2022-10-19T09:09:25.999Z,75.73
2022-10-19T09:10:26.120Z,75.82
2022-10-19T09:11:26.044Z,74.71
2022-10-19T09:12:26.067Z,75.12
2022-10-19T09:13:29.254Z,75.32
2022-10-19T09:14:26.001Z,75.42
2022-10-19T09:15:25.943Z,74.57
2022-10-19T09:16:25.987Z,75.08
2022-10-19T09:17:26.005Z,75.08
2022-10-19T09:18:26.069Z,74.98
2022-10-19T09:19:26.191Z,74.98
2022-10-19T09:20:26.070Z,75.08
2022-10-19T09:21:31.150Z,74.88
2022-10-19T09:22:25.980Z,74.98
2022-10-19T09:23:25.951Z,74.88
2022-10-19T09:24:27.339Z,74.57
2022-10-19T09:25:26.264Z,74.48
2022-10-19T09:26:26.074Z,74.57
2022-10-19T09:27:25.927Z,74.33
2022-10-19T09:28:31.389Z,73.93
2022-10-19T09:29:51.342Z,73.97
2022-10-19T09:30:25.925Z,73.93
2022-10-19T09:31:29.110Z,73.93
2022-10-19T09:32:25.819Z,74.48
2022-10-19T09:33:25.815Z,74.74
2022-10-19T09:34:26.209Z,74.44
2022-10-19T09:35:25.727Z,74.95
2022-10-19T09:36:39.344Z,74.84
2022-10-19T09:37:26.838Z,74.30
2022-10-19T09:38:25.796Z,73.80
2022-10-19T09:39:28.657Z,73.69
2022-10-19T09:40:26.075Z,73.59
2022-10-19T09:41:26.679Z,73.39
2022-10-19T09:42:25.835Z,72.58
2022-10-19T09:43:25.868Z,72.88
2022-10-19T09:44:25.672Z,72.88
2022-10-19T09:45:25.846Z,72.88
2022-10-19T09:46:25.874Z,73.09
2022-10-19T09:47:25.747Z,72.88
2022-10-19T09:48:26.419Z,72.88
2022-10-19T09:49:25.818Z,72.78
2022-10-19T09:50:28.952Z,72.99
2022-10-19T09:51:32.458Z,73.19
2022-10-19T09:52:25.802Z,73.39
2022-10-19T09:53:39.116Z,73.39
2022-10-19T09:54:29.573Z,73.80
2022-10-19T09:55:33.302Z,74.30
2022-10-19T09:56:27.238Z,74.10
2022-10-19T09:57:45.986Z,73.59
2022-10-19T09:58:49.397Z,73.69
2022-10-19T09:59:26.592Z,73.69
2022-10-19T10:00:25.689Z,73.69
2022-10-19T10:01:31.228Z,73.29
2022-10-19T10:02:27.862Z,73.19
2022-10-19T10:03:25.463Z,73.05
2022-10-19T10:04:25.664Z,72.88
2022-10-19T10:05:27.086Z,73.09
2022-10-19T10:06:26.235Z,73.29
2022-10-19T10:07:25.599Z,73.39
2022-10-19T10:08:25.922Z,73.49
2022-10-19T10:09:25.675Z,73.36
2022-10-19T10:10:28.217Z,73.15
2022-10-19T10:11:27.024Z,73.15
2022-10-19T10:12:33.235Z,73.36
2022-10-19T10:13:25.666Z,73.15
2022-10-19T10:14:25.731Z,73.56
2022-10-19T10:15:26.924Z,73.36
2022-10-19T10:16:26.579Z,73.66
2022-10-19T10:17:26.129Z,73.69
2022-10-19T10:18:26.308Z,73.90
2022-10-19T10:19:27.277Z,74.10
2022-10-19T10:20:26.637Z,74.10
2022-10-19T10:21:26.873Z,74.40
2022-10-19T10:22:26.289Z,74.30
2022-10-19T10:23:25.446Z,73.90
2022-10-19T10:25:03.692Z,73.80
2022-10-19T10:25:27.461Z,73.76
2022-10-19T10:26:30.527Z,73.96
2022-10-19T10:27:25.315Z,74.07
2022-10-19T10:28:34.260Z,74.16
2022-10-19T10:29:25.982Z,73.96
2022-10-19T10:30:27.527Z,73.86
2022-10-19T10:31:45.666Z,73.76
2022-10-19T10:32:25.362Z,73.76
2022-10-19T10:33:44.169Z,73.56
2022-10-19T10:36:02.777Z,73.83
2022-10-19T10:36:58.853Z,73.72
2022-10-19T10:38:01.360Z,73.72
2022-10-19T10:39:21.921Z,73.76
2022-10-19T10:40:01.964Z,73.76
2022-10-19T10:40:58.771Z,74.07
2022-10-19T10:42:15.148Z,74.37
2022-10-19T10:42:58.913Z,74.67
2022-10-19T10:44:01.000Z,74.87
2022-10-19T10:45:00.956Z,74.77
2022-10-19T10:45:59.107Z,74.71
2022-10-19T10:46:58.905Z,74.40
2022-10-19T10:49:18.988Z,75.82
2022-10-19T10:50:16.283Z,75.72
2022-10-19T10:51:17.120Z,75.52
2022-10-19T10:52:38.583Z,75.25
2022-10-19T10:53:16.479Z,75.55
2022-10-19T10:54:31.535Z,75.85
2022-10-19T10:55:20.373Z,76.06
2022-10-19T10:56:16.071Z,75.55
2022-10-19T10:57:15.962Z,75.11
2022-10-19T10:58:15.984Z,75.21
2022-10-19T10:59:15.916Z,74.91
2022-10-19T11:00:17.462Z,75.21
2022-10-19T11:02:52.612Z,75.21
2022-10-19T11:03:08.466Z,74.60
2022-10-19T11:04:02.282Z,75.11
2022-10-19T11:04:59.706Z,75.52
2022-10-19T11:05:59.674Z,75.92
2022-10-19T11:07:00.258Z,75.62
2022-10-19T11:08:00.599Z,75.38
2022-10-19T11:09:01.497Z,75.07
2022-10-19T11:10:03.679Z,75.01
2022-10-19T11:11:00.870Z,75.11
2022-10-19T11:13:18.005Z,75.01
2022-10-19T11:14:19.078Z,75.11
2022-10-19T11:15:18.915Z,75.11
2022-10-19T11:16:18.984Z,75.52
2022-10-19T11:17:18.928Z,75.52
2022-10-19T11:18:18.931Z,75.31
2022-10-19T11:19:18.925Z,75.11
2022-10-19T11:20:18.897Z,75.42
2022-10-19T11:21:18.842Z,75.62
2022-10-19T11:22:21.253Z,75.72
2022-10-19T11:23:18.825Z,75.72
2022-10-19T11:24:18.865Z,75.62
2022-10-19T11:25:18.813Z,76.03
2022-10-19T11:26:18.840Z,76.09
2022-10-19T11:27:18.807Z,75.99
2022-10-19T11:28:18.932Z,75.99
2022-10-19T11:29:18.791Z,75.79
2022-10-19T11:30:18.746Z,75.04
2022-10-19T11:31:18.853Z,75.24
2022-10-19T11:32:18.781Z,74.94
2022-10-19T11:33:18.744Z,74.94
2022-10-19T11:34:22.334Z,74.74
2022-10-19T11:35:18.720Z,74.94
2022-10-19T11:36:18.668Z,75.34
2022-10-19T11:37:18.694Z,75.55
2022-10-19T11:38:20.878Z,75.34
2022-10-19T11:39:18.742Z,75.34
2022-10-19T11:40:21.948Z,75.89
2022-10-19T11:41:19.281Z,75.99
2022-10-19T11:42:18.627Z,76.19
2022-10-19T11:43:19.662Z,76.39
2022-10-19T11:44:18.588Z,76.59
2022-10-19T11:45:18.774Z,76.09
2022-10-19T11:46:18.553Z,76.50
2022-10-19T11:47:18.660Z,75.99
2022-10-19T11:48:18.692Z,76.32
2022-10-19T11:49:18.551Z,76.32
2022-10-19T11:50:18.535Z,76.43
2022-10-19T11:51:21.643Z,76.39
2022-10-19T11:52:18.532Z,76.19
2022-10-19T11:53:18.520Z,76.19
2022-10-19T11:54:18.492Z,75.95
2022-10-19T11:55:18.499Z,75.55
2022-10-19T11:56:18.478Z,75.55
2022-10-19T11:57:18.479Z,75.34
2022-10-19T11:58:18.468Z,75.89
2022-10-19T11:59:18.456Z,75.99
2022-10-19T12:00:37.727Z,76.19
2022-10-19T12:01:18.424Z,76.39
2022-10-19T12:02:18.526Z,76.19
2022-10-19T12:03:18.385Z,76.56
2022-10-19T12:04:18.494Z,76.35
2022-10-19T12:05:18.384Z,76.26
2022-10-19T12:06:18.423Z,76.15
2022-10-19T12:07:18.380Z,76.05
2022-10-19T12:09:26.383Z,76.26
2022-10-19T12:10:19.622Z,76.05
2022-10-19T12:11:18.337Z,76.22
2022-10-19T12:12:18.315Z,76.46
2022-10-19T12:13:18.521Z,76.86
2022-10-19T12:14:18.271Z,77.37
2022-10-19T12:15:18.289Z,77.81
2022-10-19T12:16:18.282Z,78.11
2022-10-19T12:17:18.474Z,78.52
2022-10-19T12:18:18.285Z,78.92
2022-10-19T12:19:18.262Z,79.13
2022-10-19T12:20:19.856Z,79.57
2022-10-19T12:21:18.223Z,79.87
2022-10-19T12:22:18.258Z,80.38
2022-10-19T12:23:18.543Z,80.27
2022-10-19T12:24:18.174Z,80.58
2022-10-19T12:25:18.178Z,80.78
2022-10-19T12:27:18.203Z,81.39
2022-10-19T12:28:18.146Z,81.69
2022-10-19T12:29:18.279Z,81.90
2022-10-19T12:30:18.127Z,81.49
2022-10-19T12:31:18.214Z,81.09
2022-10-19T12:32:18.094Z,81.09
2022-10-19T12:33:18.101Z,81.18
2022-10-19T12:34:18.106Z,81.29
2022-10-19T12:36:18.075Z,81.29
2022-10-19T12:37:18.094Z,81.29
2022-10-19T12:38:18.079Z,81.15
2022-10-19T12:39:18.116Z,81.05
2022-10-19T12:40:18.082Z,80.64
2022-10-19T12:41:18.091Z,80.47
2022-10-19T12:42:18.011Z,80.78
2022-10-19T12:43:18.050Z,81.29
2022-10-19T12:44:18.061Z,81.18
2022-10-19T12:45:17.993Z,81.29
2022-10-19T12:46:18.000Z,81.18
2022-10-19T12:47:17.998Z,81.18
2022-10-19T12:48:17.940Z,81.18
2022-10-19T12:49:19.289Z,80.84
2022-10-19T12:50:17.959Z,80.64
2022-10-19T12:51:18.018Z,80.88
2022-10-19T12:53:45.613Z,80.78
2022-10-19T12:55:58.338Z,80.98
2022-10-19T12:56:08.078Z,81.39
2022-10-19T12:57:05.332Z,81.59
2022-10-19T13:00:58.197Z,81.39
2022-10-19T13:01:43.195Z,81.59
2022-10-19T13:02:44.518Z,81.49
2022-10-19T13:03:45.532Z,81.69
2022-10-19T13:04:48.562Z,81.79
2022-10-19T13:05:43.154Z,81.90
2022-10-19T13:06:44.877Z,81.76
2022-10-19T13:07:43.108Z,81.55
2022-10-19T13:08:43.613Z,81.45